Time;durP1;ratioP1;P1;durP2;ratioP2;P2;SDS_P1;SDS_P2;PMS_P1;PMS_P2;Temp;Humidity;BMP_temperature;BMP_pressure;BME280_temperature;BME280_humidity;BME280_pressure;Samples;Min_cycle;Max_cycle;Signal;HPM_P1;HPM_P2
2022/10/15 00:03:35;;;;;;;71.70;42.57;;;9.40;99.90;;;;;;10368316;28;20459;-80
2022/10/15 00:08:39;;;;;;;75.47;39.93;;;9.40;99.90;;;;;;10373800;28;20683;-80
2022/10/15 00:13:42;;;;;;;68.63;36.67;;;9.40;99.90;;;;;;10382347;28;20227;-79
2022/10/15 00:18:44;;;;;;;64.47;36.40;;;9.50;99.90;;;;;;10390665;28;20239;-80
2022/10/15 00:23:48;;;;;;;62.43;36.00;;;9.30;99.90;;;;;;10377797;28;20201;-80
2022/10/15 00:28:52;;;;;;;54.13;35.43;;;9.30;99.90;;;;;;10368586;28;20252;-80
2022/10/15 00:33:59;;;;;;;58.00;34.30;;;9.20;99.90;;;;;;10388146;28;21090;-80
2022/10/15 00:39:04;;;;;;;56.17;34.23;;;9.10;99.90;;;;;;10412229;28;20287;-80
2022/10/15 00:44:28;;;;;;;59.63;35.50;;;9.00;99.90;;;;;;10372121;28;20204;-80
2022/10/15 00:49:41;;;;;;;63.10;34.80;;;9.20;99.90;;;;;;10390133;28;20402;-79
2022/10/15 00:55:03;;;;;;;51.20;32.00;;;9.20;99.90;;;;;;10389769;28;20227;-80
2022/10/15 01:00:14;;;;;;;57.27;35.20;;;9.10;99.90;;;;;;10379347;28;20369;-80
2022/10/15 01:05:17;;;;;;;57.70;33.33;;;9.00;99.90;;;;;;10362075;28;20321;-80
2022/10/15 01:10:20;;;;;;;58.87;35.43;;;9.10;99.90;;;;;;10356348;28;20228;-81
2022/10/15 01:15:52;;;;;;;54.13;32.70;;;9.20;99.90;;;;;;10367396;28;20291;-80
2022/10/15 01:21:11;;;;;;;57.63;33.37;;;9.30;99.90;;;;;;10356417;28;20566;-79
2022/10/15 01:26:35;;;;;;;54.47;33.73;;;9.30;99.90;;;;;;10356248;28;20298;-81
2022/10/15 01:32:10;;;;;;;55.90;32.67;;;9.40;99.90;;;;;;10389836;28;20653;-80
2022/10/15 01:37:27;;;;;;;56.67;31.60;;;9.30;99.90;;;;;;10368200;28;20215;-80
2022/10/15 01:42:47;;;;;;;48.87;30.63;;;9.20;99.90;;;;;;10354689;28;20267;-81
2022/10/15 01:47:59;;;;;;;52.43;30.77;;;9.30;99.90;;;;;;10347962;28;20402;-80
2022/10/15 01:53:03;;;;;;;48.77;29.20;;;9.30;99.90;;;;;;10338842;28;20264;-80
2022/10/15 01:58:07;;;;;;;46.73;28.23;;;9.30;99.90;;;;;;10377951;28;20795;-80
2022/10/15 02:03:10;;;;;;;44.63;27.13;;;9.40;99.90;;;;;;10383582;28;20259;-80
2022/10/15 02:08:23;;;;;;;41.87;25.83;;;9.50;99.90;;;;;;10386676;28;20306;-80
2022/10/15 02:13:54;;;;;;;46.03;27.13;;;9.50;99.90;;;;;;10354613;28;20654;-80
2022/10/15 02:19:23;;;;;;;44.77;28.53;;;9.40;99.90;;;;;;10354234;28;20677;-80
2022/10/15 02:24:32;;;;;;;41.43;26.07;;;9.20;99.90;;;;;;10361446;28;20300;-80
2022/10/15 02:29:40;;;;;;;43.23;27.57;;;9.10;99.90;;;;;;10353547;28;20247;-80
2022/10/15 02:34:44;;;;;;;41.77;27.37;;;9.20;99.90;;;;;;10371062;28;20274;-80
2022/10/15 02:39:48;;;;;;;48.73;26.57;;;9.10;99.90;;;;;;10352514;28;20212;-80
2022/10/15 02:44:50;;;;;;;49.27;28.50;;;9.10;99.90;;;;;;10352970;28;20295;-80
2022/10/15 02:49:53;;;;;;;42.80;27.17;;;9.30;99.90;;;;;;10370857;28;20244;-80
2022/10/15 02:54:55;;;;;;;45.57;27.47;;;10.00;99.90;;;;;;10353236;28;20271;-80
2022/10/15 02:59:58;;;;;;;46.03;27.63;;;10.50;99.90;;;;;;10385143;28;20240;-80
2022/10/15 03:05:01;;;;;;;45.33;29.40;;;9.90;99.90;;;;;;10364831;28;20662;-80
2022/10/15 03:10:05;;;;;;;47.40;30.57;;;10.60;99.90;;;;;;10384521;28;20266;-80
2022/10/15 03:15:08;;;;;;;49.03;32.03;;;10.20;99.90;;;;;;10392140;28;20689;-80
2022/10/15 03:20:10;;;;;;;52.23;32.43;;;9.80;99.90;;;;;;10351193;28;20204;-80
2022/10/15 03:25:14;;;;;;;50.73;32.33;;;10.00;99.90;;;;;;10342316;28;20233;-80
2022/10/15 03:30:17;;;;;;;51.47;33.07;;;10.90;99.90;;;;;;10350909;28;20314;-80
2022/10/15 03:35:21;;;;;;;52.07;33.00;;;10.60;99.90;;;;;;10350839;28;20228;-80
2022/10/15 03:40:24;;;;;;;57.87;32.97;;;10.70;99.90;;;;;;10350171;28;20245;-80
2022/10/15 03:45:31;;;;;;;50.43;31.87;;;10.40;99.90;;;;;;10350489;28;20767;-80
2022/10/15 03:50:47;;;;;;;46.93;30.20;;;10.40;99.90;;;;;;10350869;28;20207;-80
2022/10/15 03:55:50;;;;;;;50.90;30.63;;;10.30;99.90;;;;;;10380753;28;20232;-80
2022/10/15 04:00:53;;;;;;;48.37;31.93;;;10.70;99.90;;;;;;10355653;28;20610;-80
2022/10/15 04:05:55;;;;;;;47.47;30.63;;;10.40;99.90;;;;;;10349423;28;20711;-80
2022/10/15 04:11:03;;;;;;;49.67;31.53;;;10.10;99.90;;;;;;10383721;28;20237;-80
2022/10/15 04:16:06;;;;;;;52.60;34.57;;;10.00;99.90;;;;;;10372821;28;20961;-80
2022/10/15 04:21:09;;;;;;;51.57;32.20;;;9.90;99.90;;;;;;10349760;28;20844;-80
2022/10/15 04:26:14;;;;;;;54.77;33.10;;;10.00;99.90;;;;;;10348934;28;20249;-80
2022/10/15 04:31:17;;;;;;;58.40;33.93;;;10.00;99.90;;;;;;10367335;28;20240;-80
2022/10/15 04:36:21;;;;;;;54.27;33.07;;;9.90;99.90;;;;;;10349553;28;20292;-80
2022/10/15 04:41:32;;;;;;;51.67;32.20;;;9.90;99.90;;;;;;10353582;28;20610;-81
2022/10/15 04:46:38;;;;;;;56.00;33.53;;;9.90;99.90;;;;;;10372435;28;20312;-80
2022/10/15 04:51:56;;;;;;;48.07;30.23;;;10.20;99.90;;;;;;10343926;28;20230;-80
2022/10/15 04:57:04;;;;;;;48.33;31.63;;;10.30;99.90;;;;;;10366715;28;20552;-80
2022/10/15 05:02:07;;;;;;;45.87;31.53;;;10.20;99.90;;;;;;10348403;28;20302;-80
2022/10/15 05:07:10;;;;;;;46.73;29.77;;;10.60;99.90;;;;;;10358393;28;20318;-80
2022/10/15 05:12:14;;;;;;;48.47;29.23;;;10.60;99.90;;;;;;10351571;28;20298;-80
2022/10/15 05:17:17;;;;;;;49.43;29.07;;;10.60;99.90;;;;;;10347889;28;20688;-80
2022/10/15 05:22:19;;;;;;;43.23;27.83;;;10.50;99.90;;;;;;10348314;28;20240;-81
2022/10/15 05:27:27;;;;;;;45.33;29.70;;;10.50;99.90;;;;;;10354405;28;20300;-81
2022/10/15 05:32:29;;;;;;;47.37;29.07;;;10.80;99.90;;;;;;10358667;28;20237;-80
2022/10/15 05:37:32;;;;;;;45.97;28.33;;;11.20;99.90;;;;;;10359596;28;20289;-80
2022/10/15 05:42:35;;;;;;;44.37;28.83;;;10.90;99.90;;;;;;10354950;28;20217;-81
2022/10/15 05:47:40;;;;;;;46.27;26.53;;;11.70;99.90;;;;;;10356510;28;20266;-81
2022/10/15 05:52:53;;;;;;;44.90;27.47;;;11.10;99.90;;;;;;10354976;28;20611;-80
2022/10/15 05:58:10;;;;;;;45.00;28.67;;;10.70;99.90;;;;;;10353922;28;20813;-80
2022/10/15 06:03:13;;;;;;;44.03;27.43;;;10.90;99.90;;;;;;10355563;28;20258;-80
2022/10/15 06:08:16;;;;;;;46.83;27.50;;;11.00;99.90;;;;;;10353341;28;20656;-81
2022/10/15 06:13:18;;;;;;;40.23;25.03;;;10.90;99.90;;;;;;10350921;28;20231;-80
2022/10/15 06:18:23;;;;;;;38.47;25.00;;;11.20;99.90;;;;;;10371334;28;20297;-80
2022/10/15 06:23:25;;;;;;;42.40;26.60;;;11.00;99.90;;;;;;10353210;28;20285;-80
2022/10/15 06:28:28;;;;;;;44.27;25.67;;;10.90;99.90;;;;;;10385210;28;20401;-80
2022/10/15 06:33:32;;;;;;;42.93;25.20;;;11.20;99.90;;;;;;10402970;28;20692;-80
2022/10/15 06:38:35;;;;;;;40.27;25.13;;;11.20;99.90;;;;;;10376421;28;20273;-80
2022/10/15 06:43:38;;;;;;;38.37;23.67;;;11.20;99.90;;;;;;10392573;28;20263;-81
2022/10/15 06:48:40;;;;;;;40.47;23.93;;;11.10;99.90;;;;;;10380498;28;20259;-80
2022/10/15 06:53:43;;;;;;;40.13;25.70;;;11.10;99.90;;;;;;10391081;28;20270;-80
2022/10/15 06:58:45;;;;;;;45.27;26.90;;;11.10;99.90;;;;;;10385340;28;20348;-80
2022/10/15 07:03:49;;;;;;;48.17;24.87;;;11.30;99.90;;;;;;10369301;28;20603;-80
2022/10/15 07:08:51;;;;;;;39.17;23.80;;;11.50;99.90;;;;;;10369329;28;20302;-81
2022/10/15 07:13:56;;;;;;;35.67;24.27;;;11.60;99.90;;;;;;10350508;28;20747;-81
2022/10/15 07:18:58;;;;;;;38.57;25.53;;;11.70;99.90;;;;;;10335109;28;20288;-81
2022/10/15 07:24:01;;;;;;;40.77;24.77;;;11.80;99.90;;;;;;10351566;28;20265;-80
2022/10/15 07:29:04;;;;;;;43.83;26.37;;;12.10;99.90;;;;;;10353314;28;20726;-81
2022/10/15 07:34:06;;;;;;;44.13;26.27;;;12.20;99.90;;;;;;10347427;28;20222;-81
2022/10/15 07:39:09;;;;;;;42.70;25.00;;;12.30;99.90;;;;;;10350455;28;20200;-80
2022/10/15 07:44:11;;;;;;;40.83;24.23;;;12.30;99.90;;;;;;10368206;28;20743;-80
2022/10/15 07:49:15;;;;;;;39.20;25.00;;;12.40;99.90;;;;;;10386291;28;20262;-81
2022/10/15 07:54:18;;;;;;;41.97;24.17;;;12.30;99.90;;;;;;10354159;28;20693;-81
2022/10/15 07:59:21;;;;;;;34.70;22.53;;;12.30;99.90;;;;;;10350466;28;20317;-81
2022/10/15 08:04:23;;;;;;;42.13;27.17;;;12.50;99.90;;;;;;10368278;28;20281;-80
2022/10/15 08:09:26;;;;;;;36.87;22.87;;;13.00;99.90;;;;;;10363553;28;20286;-81
2022/10/15 08:14:28;;;;;;;31.27;20.87;;;13.40;99.90;;;;;;10387214;28;20678;-80
2022/10/15 08:19:31;;;;;;;36.27;21.60;;;13.50;99.90;;;;;;10383873;28;20227;-80
2022/10/15 08:24:34;;;;;;;38.87;25.17;;;13.50;99.90;;;;;;10355761;28;20251;-81
2022/10/15 08:29:36;;;;;;;35.90;21.33;;;13.80;99.90;;;;;;10365526;28;20252;-80
2022/10/15 08:34:39;;;;;;;35.03;21.33;;;14.40;99.90;;;;;;10342857;28;20282;-80
2022/10/15 08:39:41;;;;;;;33.13;20.87;;;14.50;99.90;;;;;;10387095;28;20315;-80
2022/10/15 08:45:15;;;;;;;34.17;20.87;;;14.40;99.90;;;;;;10399867;28;20239;-80
2022/10/15 08:50:41;;;;;;;36.20;20.90;;;14.20;99.90;;;;;;10325271;28;20287;-80
2022/10/15 08:55:49;;;;;;;36.87;22.60;;;14.20;99.90;;;;;;10367574;28;20262;-80
2022/10/15 09:01:20;;;;;;;37.60;24.23;;;13.90;99.90;;;;;;10370978;28;20232;-81
2022/10/15 09:06:38;;;;;;;37.27;22.97;;;13.80;99.90;;;;;;10375384;28;20247;-81
2022/10/15 09:11:50;;;;;;;38.47;23.20;;;13.70;99.90;;;;;;10387231;28;20259;-81
2022/10/15 09:16:53;;;;;;;35.13;22.40;;;13.80;99.90;;;;;;10374194;28;20232;-81
2022/10/15 09:21:56;;;;;;;38.10;21.97;;;13.90;99.90;;;;;;10356122;28;20244;-81
2022/10/15 09:27:32;;;;;;;36.90;23.00;;;14.10;99.90;;;;;;10360568;28;20271;-81
2022/10/15 09:32:51;;;;;;;41.13;23.00;;;14.40;99.90;;;;;;10330070;28;20259;-81
2022/10/15 09:38:14;;;;;;;44.70;23.70;;;14.50;99.90;;;;;;10413351;28;20251;-81
2022/10/15 09:43:29;;;;;;;43.20;23.07;;;14.60;99.90;;;;;;10413781;28;20265;-82
2022/10/15 09:48:40;;;;;;;32.83;20.67;;;14.80;99.90;;;;;;10413634;28;20282;-82
2022/10/15 09:54:04;;;;;;;33.60;22.17;;;15.10;99.90;;;;;;10392715;28;20707;-81
2022/10/15 09:59:16;;;;;;;33.17;22.17;;;15.30;99.90;;;;;;10370955;28;20270;-80
2022/10/15 10:04:19;;;;;;;36.17;22.97;;;15.30;99.90;;;;;;10403131;28;20239;-80
2022/10/15 10:09:32;;;;;;;37.63;21.40;;;15.50;99.90;;;;;;10395191;28;20246;-81
2022/10/15 10:14:51;;;;;;;37.07;21.00;;;15.90;99.90;;;;;;10395734;28;20223;-80
2022/10/15 10:20:17;;;;;;;33.90;21.60;;;16.10;99.90;;;;;;10394788;28;20203;-82
2022/10/15 10:25:26;;;;;;;36.17;21.83;;;;;;;;;;10391674;28;20341;-81
2022/10/15 10:30:33;;;;;;;30.10;21.23;;;16.40;99.90;;;;;;10411630;28;20318;-81
2022/10/15 10:35:45;;;;;;;35.03;22.57;;;16.20;99.90;;;;;;10377120;28;20229;-81
2022/10/15 10:40:57;;;;;;;40.67;23.27;;;16.10;99.90;;;;;;10410072;28;20297;-81
2022/10/15 10:46:02;;;;;;;33.87;21.67;;;16.20;99.90;;;;;;10411670;28;20235;-81
2022/10/15 10:51:14;;;;;;;35.67;22.40;;;16.60;99.90;;;;;;10391897;28;20247;-81
2022/10/15 10:56:32;;;;;;;35.10;23.37;;;16.70;99.90;;;;;;10394000;28;20349;-81
2022/10/15 11:01:35;;;;;;;45.73;24.60;;;16.60;99.90;;;;;;10392936;28;20305;-81
2022/10/15 11:06:53;;;;;;;30.53;21.50;;;16.40;99.90;;;;;;10393541;28;20750;-80
2022/10/15 11:12:37;;;;;;;38.63;23.60;;;16.10;99.90;;;;;;10410379;28;20309;-80
2022/10/15 11:17:42;;;;;;;37.67;22.90;;;15.90;99.90;;;;;;10360968;28;20274;-82
2022/10/15 11:23:08;;;;;;;44.70;23.73;;;15.80;99.90;;;;;;10407886;28;20231;-80
2022/10/15 11:28:30;;;;;;;38.23;22.53;;;15.80;99.90;;;;;;10391495;28;20277;-79
2022/10/15 11:34:01;;;;;;;44.27;25.20;;;16.10;99.90;;;;;;10408667;28;20227;-80
2022/10/15 11:39:10;;;;;;;37.03;23.30;;;16.20;99.90;;;;;;10408767;28;20277;-80
2022/10/15 11:44:46;;;;;;;36.90;23.03;;;16.20;99.90;;;;;;10391667;28;20239;-80
2022/10/15 11:50:16;;;;;;;37.27;23.50;;;16.60;99.90;;;;;;10390011;28;20255;-80
2022/10/15 11:55:23;;;;;;;39.80;22.27;;;17.10;99.90;;;;;;10408483;28;20219;-80
2022/10/15 12:00:38;;;;;;;33.70;22.80;;;17.30;99.90;;;;;;10409295;28;20223;-80
2022/10/15 12:06:10;;;;;;;37.50;23.23;;;17.00;99.90;;;;;;10409086;28;20241;-79
2022/10/15 12:11:33;;;;;;;35.73;21.33;;;16.80;99.90;;;;;;10397304;28;20309;-80
2022/10/15 12:16:57;;;;;;;33.00;19.83;;;16.70;99.90;;;;;;10407405;28;20211;-80
2022/10/15 12:22:10;;;;;;;31.20;19.13;;;16.50;99.90;;;;;;10374297;28;20744;-80
2022/10/15 12:27:18;;;;;;;32.60;19.07;;;16.40;99.90;;;;;;10409058;28;20211;-80
2022/10/15 12:32:26;;;;;;;28.80;17.73;;;16.30;99.90;;;;;;10390063;28;20262;-80
2022/10/15 12:37:33;;;;;;;37.70;19.80;;;16.20;99.90;;;;;;10416156;28;20224;-79
2022/10/15 12:42:38;;;;;;;30.03;18.50;;;16.20;99.90;;;;;;10416786;28;20250;-81
2022/10/15 12:47:53;;;;;;;31.43;18.87;;;16.20;99.90;;;;;;10414017;28;20286;-80
2022/10/15 12:53:01;;;;;;;31.03;17.23;;;16.40;99.90;;;;;;10415356;28;20233;-81
2022/10/15 12:58:36;;;;;;;24.70;16.17;;;16.50;99.90;;;;;;10414760;28;20281;-80
2022/10/15 13:03:50;;;;;;;19.80;13.60;;;16.60;99.90;;;;;;10412749;28;20235;-80
2022/10/15 13:09:04;;;;;;;19.83;12.63;;;16.60;99.90;;;;;;10414317;28;20274;-80
2022/10/15 13:14:27;;;;;;;16.13;10.40;;;16.70;99.90;;;;;;10397057;28;20265;-80
2022/10/15 13:19:45;;;;;;;15.03;9.63;;;16.80;99.90;;;;;;10397422;28;20284;-80
2022/10/15 13:24:47;;;;;;;17.00;10.40;;;16.80;99.90;;;;;;10413804;28;20425;-80
2022/10/15 13:30:03;;;;;;;22.40;13.57;;;17.00;99.90;;;;;;10393440;28;20289;-80
2022/10/15 13:35:12;;;;;;;19.87;14.77;;;16.90;99.90;;;;;;10394545;28;20265;-80
2022/10/15 13:40:21;;;;;;;25.00;17.57;;;16.70;99.90;;;;;;10394491;28;20230;-80
2022/10/15 13:45:23;;;;;;;26.27;16.47;;;16.90;99.90;;;;;;10391951;28;20228;-79
2022/10/15 13:50:29;;;;;;;25.33;15.90;;;16.50;99.90;;;;;;10370044;28;20317;-81
2022/10/15 13:55:35;;;;;;;35.53;17.13;;;16.80;99.90;;;;;;10196608;23;20231;-95
2022/10/15 14:00:40;;;;;;;26.00;16.40;;;16.70;99.90;;;;;;10158185;28;20243;-95
2022/10/15 14:05:45;;;;;;;27.23;17.63;;;16.60;99.90;;;;;;10156448;28;20742;-95
2022/10/15 14:10:49;;;;;;;29.47;18.47;;;16.60;99.90;;;;;;10154192;29;20231;-95
2022/10/15 14:16:21;;;;;;;27.90;18.03;;;16.50;99.90;;;;;;10155377;29;20200;-95
2022/10/15 14:21:31;;;;;;;31.63;18.47;;;16.40;99.90;;;;;;10169247;29;20330;-94
2022/10/15 14:26:34;;;;;;;26.10;17.73;;;16.30;99.90;;;;;;10155758;28;20207;-96
2022/10/15 14:31:39;;;;;;;30.37;19.10;;;16.40;99.90;;;;;;10152495;29;20232;-96
2022/10/15 14:36:42;;;;;;;27.63;18.23;;;16.30;99.90;;;;;;10170643;29;20215;-95
2022/10/15 14:42:29;;;;;;;30.80;19.70;;;16.20;99.90;;;;;;10169626;29;20200;-95
2022/10/15 14:47:32;;;;;;;29.40;19.57;;;16.10;99.90;;;;;;10159288;29;20215;-95
2022/10/15 14:52:36;;;;;;;33.50;21.13;;;16.00;99.90;;;;;;10206617;28;20240;-95
2022/10/15 14:57:43;;;;;;;35.53;20.70;;;15.80;99.90;;;;;;10280169;28;20192;-95
2022/10/15 15:02:46;;;;;;;34.00;20.00;;;15.70;99.90;;;;;;10130846;28;20193;-94
2022/10/15 15:07:49;;;;;;;37.97;22.00;;;15.70;99.90;;;;;;10132504;29;20262;-96
2022/10/15 15:12:55;;;;;;;31.63;19.47;;;15.60;99.90;;;;;;10154110;29;20246;-95
2022/10/15 15:18:00;;;;;;;36.73;22.00;;;15.60;99.90;;;;;;10116367;28;20228;-95
2022/10/15 15:23:03;;;;;;;33.43;21.70;;;15.60;99.90;;;;;;10127764;28;20206;-95
2022/10/15 15:28:19;;;;;;;36.20;21.30;;;15.40;99.90;;;;;;10101426;28;20235;-94
2022/10/15 15:33:22;;;;;;;35.27;21.23;;;15.30;99.90;;;;;;10132418;29;20204;-94
2022/10/15 15:38:29;;;;;;;37.60;22.77;;;15.30;99.90;;;;;;10122624;29;20204;-95
2022/10/15 15:43:32;;;;;;;39.47;22.90;;;15.30;99.90;;;;;;10152277;29;20209;-94
2022/10/15 15:48:36;;;;;;;38.27;24.20;;;15.30;99.90;;;;;;10124874;29;20220;-93
2022/10/15 15:53:39;;;;;;;33.23;22.60;;;15.00;99.90;;;;;;10106373;28;20240;-95
2022/10/15 15:58:42;;;;;;;45.47;21.80;;;15.00;99.90;;;;;;10132109;29;20251;-93
2022/10/15 16:03:44;;;;;;;38.23;24.13;;;15.10;99.90;;;;;;10148085;29;20208;-90
2022/10/15 16:08:50;;;;;;;34.40;21.13;;;15.70;99.90;;;;;;10146257;28;20251;-91
2022/10/15 16:13:53;;;;;;;39.00;23.40;;;15.30;99.90;;;;;;10166210;29;20657;-92
2022/10/15 16:18:55;;;;;;;37.07;23.33;;;15.10;99.90;;;;;;10145636;29;20227;-90
2022/10/15 16:23:58;;;;;;;35.87;22.03;;;15.10;99.90;;;;;;10147055;29;20199;-92
2022/10/15 16:29:05;;;;;;;35.27;21.87;;;15.40;99.90;;;;;;10132170;29;20334;-91
2022/10/15 16:34:08;;;;;;;33.63;22.20;;;15.20;99.90;;;;;;10143730;28;20269;-91
2022/10/15 16:39:10;;;;;;;33.47;21.20;;;15.10;99.90;;;;;;10141130;28;20235;-91
2022/10/15 16:44:13;;;;;;;35.50;21.47;;;14.80;99.90;;;;;;10150928;29;20649;-91
2022/10/15 16:49:15;;;;;;;36.67;22.47;;;14.70;99.90;;;;;;10161801;29;20255;-90
2022/10/15 16:54:18;;;;;;;32.30;21.83;;;14.60;99.90;;;;;;10153549;29;20251;-92
2022/10/15 16:59:21;;;;;;;29.33;18.17;;;14.50;99.90;;;;;;10146525;28;20247;-91
2022/10/15 17:04:23;;;;;;;35.70;20.23;;;14.40;99.90;;;;;;10137103;28;20273;-91
2022/10/15 17:09:26;;;;;;;23.17;16.80;;;14.40;99.90;;;;;;10162077;28;20302;-93
2022/10/15 17:14:28;;;;;;;25.23;14.87;;;14.40;99.90;;;;;;10160677;29;20286;-91
2022/10/15 17:19:31;;;;;;;21.47;14.70;;;14.40;99.90;;;;;;10146857;28;20217;-92
2022/10/15 17:24:35;;;;;;;23.73;14.80;;;14.30;99.90;;;;;;10149648;28;20239;-92
2022/10/15 17:29:38;;;;;;;20.27;12.23;;;14.30;99.90;;;;;;10152659;28;20795;-91
2022/10/15 17:34:40;;;;;;;17.37;12.03;;;14.40;99.90;;;;;;10151000;29;20212;-92
2022/10/15 17:39:43;;;;;;;16.97;13.03;;;14.30;99.90;;;;;;10151053;29;20231;-92
2022/10/15 17:44:45;;;;;;;19.90;12.03;;;14.30;99.90;;;;;;10151024;28;20279;-91
2022/10/15 17:49:48;;;;;;;20.60;12.33;;;14.10;99.90;;;;;;10150186;28;20309;-92
2022/10/15 17:54:50;;;;;;;16.27;11.73;;;13.90;99.90;;;;;;10167358;29;20251;-92
2022/10/15 17:59:53;;;;;;;21.43;13.37;;;14.00;99.90;;;;;;10166196;29;20240;-92
2022/10/15 18:04:55;;;;;;;23.20;14.20;;;14.00;99.90;;;;;;10163987;29;20261;-92
2022/10/15 18:10:00;;;;;;;22.30;15.40;;;14.10;99.90;;;;;;9828984;28;9999920;-91
2022/10/15 18:15:03;;;;;;;25.20;16.07;;;14.00;99.90;;;;;;10154089;28;20235;-91
2022/10/15 18:20:05;;;;;;;26.20;16.33;;;14.10;99.90;;;;;;10149361;29;20290;-91
2022/10/15 18:25:08;;;;;;;23.60;15.63;;;14.10;99.90;;;;;;10147583;29;20673;-91
2022/10/15 18:30:11;;;;;;;23.27;15.10;;;14.10;99.90;;;;;;10169932;28;20313;-91
2022/10/15 18:35:13;;;;;;;22.30;16.23;;;14.10;99.90;;;;;;10147301;29;20273;-91
2022/10/15 18:40:16;;;;;;;24.87;15.67;;;14.10;99.90;;;;;;10147274;29;20231;-92
2022/10/15 18:45:18;;;;;;;29.07;16.40;;;14.10;99.90;;;;;;10145736;29;20243;-92
2022/10/15 18:50:21;;;;;;;25.87;16.30;;;14.10;99.90;;;;;;10147746;28;20263;-91
2022/10/15 18:55:24;;;;;;;25.50;14.63;;;14.10;99.90;;;;;;10147658;28;20259;-91
2022/10/15 19:00:28;;;;;;;24.27;14.63;;;14.20;99.90;;;;;;10151161;28;20692;-93
2022/10/15 19:05:30;;;;;;;28.43;16.93;;;14.20;99.90;;;;;;10136469;28;20244;-91
2022/10/15 19:10:33;;;;;;;25.43;16.33;;;14.20;99.90;;;;;;10142466;29;20643;-92
2022/10/15 19:15:35;;;;;;;27.23;17.60;;;14.20;99.90;;;;;;10162202;28;20240;-91
2022/10/15 19:20:39;;;;;;;23.33;15.63;;;14.10;99.90;;;;;;10144651;28;20247;-92
2022/10/15 19:25:43;;;;;;;26.90;17.40;;;14.10;99.90;;;;;;10146562;29;20285;-92
2022/10/15 19:30:56;;;;;;;44.70;23.20;;;14.10;99.90;;;;;;10151775;28;20263;-92
2022/10/15 19:35:59;;;;;;;31.47;19.07;;;14.10;99.90;;;;;;10143429;29;20235;-92
2022/10/15 19:41:03;;;;;;;32.97;19.03;;;14.20;99.90;;;;;;10144351;29;20277;-91
2022/10/15 19:46:06;;;;;;;29.87;17.97;;;14.10;99.90;;;;;;10167548;28;20228;-92
2022/10/15 19:51:08;;;;;;;26.43;18.33;;;14.10;99.90;;;;;;10229122;28;20263;-92
2022/10/15 19:56:11;;;;;;;32.40;18.10;;;14.00;99.90;;;;;;10161954;29;20286;-92
2022/10/15 20:01:13;;;;;;;37.57;20.40;;;14.00;99.90;;;;;;10159838;29;20289;-92
2022/10/15 20:06:17;;;;;;;31.77;20.57;;;13.90;99.90;;;;;;10124353;29;20677;-91
2022/10/15 20:11:20;;;;;;;35.87;21.87;;;14.00;99.90;;;;;;10170099;29;20251;-92
2022/10/15 20:16:22;;;;;;;36.13;22.40;;;13.90;99.90;;;;;;10147808;29;20236;-92
2022/10/15 20:21:27;;;;;;;37.00;23.57;;;13.90;99.90;;;;;;10145452;29;20273;-91
2022/10/15 20:26:30;;;;;;;34.93;23.57;;;13.90;99.90;;;;;;10143731;28;20294;-91
2022/10/15 20:31:34;;;;;;;34.63;22.33;;;13.60;99.90;;;;;;10145561;28;20297;-91
2022/10/15 20:36:40;;;;;;;34.47;22.87;;;13.30;99.90;;;;;;10128467;28;20228;-91
2022/10/15 20:41:42;;;;;;;43.47;24.97;;;13.10;99.90;;;;;;10143289;29;20310;-90
2022/10/15 20:46:56;;;;;;;39.40;24.70;;;12.90;99.90;;;;;;10152867;29;20302;-91
2022/10/15 20:51:58;;;;;;;42.07;24.57;;;12.70;99.90;;;;;;10144774;29;20267;-92
2022/10/15 20:57:01;;;;;;;40.37;24.47;;;12.60;99.90;;;;;;10150458;28;20242;-90
2022/10/15 21:02:07;;;;;;;41.43;24.93;;;12.50;99.90;;;;;;10158167;29;20248;-91
2022/10/15 21:07:09;;;;;;;37.00;25.00;;;12.40;99.90;;;;;;10156216;29;20224;-91
2022/10/15 21:12:12;;;;;;;44.43;26.40;;;12.20;99.90;;;;;;10151630;28;20665;-91
2022/10/15 21:17:14;;;;;;;47.73;26.97;;;12.10;99.90;;;;;;10154172;28;20289;-91
2022/10/15 21:22:17;;;;;;;45.43;26.70;;;12.20;99.90;;;;;;10165798;28;20247;-91
2022/10/15 21:27:19;;;;;;;48.27;29.73;;;11.90;99.90;;;;;;10167695;29;20698;-91
2022/10/15 21:32:22;;;;;;;51.33;31.43;;;11.90;99.90;;;;;;10167636;29;20259;-89
2022/10/15 21:37:24;;;;;;;51.47;30.57;;;11.70;99.90;;;;;;10149244;28;20243;-91
2022/10/15 21:42:29;;;;;;;61.60;35.43;;;11.70;99.90;;;;;;10166019;28;20691;-90
2022/10/15 21:47:31;;;;;;;66.30;37.90;;;11.70;99.90;;;;;;10165371;29;20247;-90
2022/10/15 21:52:34;;;;;;;65.43;38.83;;;11.70;99.90;;;;;;10165056;29;20786;-90
2022/10/15 21:57:37;;;;;;;60.93;37.47;;;11.70;99.90;;;;;;10149843;29;20240;-91
2022/10/15 22:02:39;;;;;;;69.10;40.97;;;11.70;99.90;;;;;;10149447;29;20255;-91
2022/10/15 22:07:41;;;;;;;69.23;39.63;;;11.80;99.90;;;;;;10132856;29;20215;-92
2022/10/15 22:12:50;;;;;;;68.63;38.47;;;11.90;99.90;;;;;;10147073;29;20262;-91
2022/10/15 22:17:52;;;;;;;66.80;38.30;;;11.90;99.90;;;;;;10149141;28;20240;-92
2022/10/15 22:22:57;;;;;;;65.87;39.40;;;11.80;99.90;;;;;;10159127;29;20759;-91
2022/10/15 22:28:00;;;;;;;66.77;38.57;;;11.80;99.90;;;;;;10146644;29;20247;-91
2022/10/15 22:33:03;;;;;;;73.47;40.73;;;11.90;99.90;;;;;;10164683;29;20259;-91
2022/10/15 22:38:05;;;;;;;64.20;38.20;;;11.80;99.90;;;;;;10139022;29;20692;-91
2022/10/15 22:43:07;;;;;;;62.93;37.40;;;12.00;99.90;;;;;;10135550;29;20292;-91
2022/10/15 22:48:10;;;;;;;60.00;37.57;;;12.10;99.90;;;;;;10165259;29;20297;-91
2022/10/15 22:53:13;;;;;;;59.83;36.33;;;12.10;99.90;;;;;;10148308;28;20326;-90
2022/10/15 22:58:15;;;;;;;55.37;34.80;;;12.10;99.90;;;;;;10174271;29;20255;-90
2022/10/15 23:03:18;;;;;;;55.33;33.07;;;12.20;99.90;;;;;;10170231;29;20305;-91
2022/10/15 23:08:21;;;;;;;59.43;33.87;;;12.20;99.90;;;;;;10164847;29;20239;-91
2022/10/15 23:13:24;;;;;;;54.60;32.93;;;12.20;99.90;;;;;;10177840;29;20695;-90
2022/10/15 23:18:26;;;;;;;55.63;35.60;;;12.20;99.90;;;;;;10194913;29;20235;-91
2022/10/15 23:23:29;;;;;;;59.40;34.43;;;12.10;99.90;;;;;;10146541;29;20266;-90
2022/10/15 23:28:31;;;;;;;55.47;33.13;;;12.10;99.90;;;;;;10187402;29;20239;-90
2022/10/15 23:33:34;;;;;;;57.57;35.43;;;12.00;99.90;;;;;;10163254;29;20283;-90
2022/10/15 23:38:36;;;;;;;52.20;33.53;;;12.10;99.90;;;;;;10163583;29;20308;-91
2022/10/15 23:43:38;;;;;;;55.73;33.80;;;12.00;99.90;;;;;;10162977;29;20246;-91
2022/10/15 23:48:41;;;;;;;51.50;31.10;;;11.90;99.90;;;;;;10162075;29;20258;-92
2022/10/15 23:53:44;;;;;;;56.17;34.73;;;11.90;99.90;;;;;;10169958;29;20331;-91
2022/10/15 23:58:51;;;;;;;56.23;33.90;;;11.90;99.90;;;;;;10172142;29;20296;-92
